Terminal Aerodrome Forecast
Issued by NWS

Current Version | Previous Version | Text Only | Print | Product List | Glossary Off
Versions: 1 2 3 4 5 6 7 8 9 10 11 12 13 14 15 16 17 18

000
FTUS42 KMHX 271732
TAFISO
TAF
KISO 271732Z 2718/2818 19010G15KT P6SM SCT040
     FM280200 18010G15KT P6SM BKN110
     FM280600 17005KT P6SM BKN060
     FM280900 16005KT 6SM -SHRA OVC040
     FM281200 16005KT 2SM +SHRA OVC035
      AMD LTD TO CLD VIS AND WIND=

USA.gov is the U.S. government's official web portal to all federal, state and local government web resources and services.